createdAt,value
2023-03-17T00:00:45.798Z,77.29
2023-03-17T00:03:21.474Z,77.52
2023-03-17T00:05:51.359Z,77.30
2023-03-17T00:08:24.029Z,77.48
2023-03-17T00:10:53.948Z,77.36
2023-03-17T00:13:24.402Z,77.38
2023-03-17T00:15:56.557Z,77.43
2023-03-17T00:18:27.666Z,77.32
2023-03-17T00:20:56.807Z,77.01
2023-03-17T00:23:26.868Z,77.04
2023-03-17T00:25:57.670Z,77.11
2023-03-17T00:28:29.057Z,77.01
2023-03-17T00:31:01.352Z,77.02
2023-03-17T00:33:35.119Z,76.78
2023-03-17T00:36:04.370Z,77.26
2023-03-17T00:38:33.538Z,77.04
2023-03-17T00:41:03.678Z,77.03
2023-03-17T00:43:33.004Z,77.26
2023-03-17T00:46:02.183Z,77.04
2023-03-17T00:48:32.924Z,77.10
2023-03-17T00:51:02.224Z,76.75
2023-03-17T00:53:31.368Z,77.39
2023-03-17T00:56:00.586Z,77.10
2023-03-17T00:58:33.042Z,77.48
2023-03-17T01:01:02.952Z,77.23
2023-03-17T01:03:34.818Z,76.89
2023-03-17T01:06:05.878Z,76.82
2023-03-17T01:08:35.421Z,77.03
2023-03-17T01:11:04.815Z,76.71
2023-03-17T01:13:34.655Z,77.07
2023-03-17T01:16:03.801Z,76.69
2023-03-17T01:18:34.799Z,77.29
2023-03-17T01:21:04.346Z,76.83
2023-03-17T01:23:33.662Z,76.77
2023-03-17T01:26:02.897Z,76.16
2023-03-17T01:28:32.199Z,76.67
2023-03-17T01:31:03.233Z,76.61
2023-03-17T01:33:32.444Z,76.64
2023-03-17T01:36:03.231Z,76.43
2023-03-17T01:38:32.962Z,76.49
2023-03-17T01:41:03.815Z,76.40
2023-03-17T01:43:33.177Z,76.51
2023-03-17T01:46:21.194Z,76.30
2023-03-17T01:48:57.685Z,76.33
2023-03-17T01:51:34.368Z,76.39
2023-03-17T01:54:08.749Z,76.40
2023-03-17T01:56:41.298Z,76.17
2023-03-17T01:59:15.052Z,76.16
2023-03-17T02:01:47.892Z,76.62
2023-03-17T02:04:18.039Z,76.53
2023-03-17T02:06:58.867Z,76.38
2023-03-17T02:09:30.312Z,76.34
2023-03-17T02:12:02.302Z,76.43
2023-03-17T02:14:32.023Z,76.44
2023-03-17T02:17:05.483Z,76.32
2023-03-17T02:19:34.690Z,76.33
2023-03-17T02:22:05.775Z,76.40
2023-03-17T02:24:39.319Z,76.39
2023-03-17T02:27:13.538Z,76.49
2023-03-17T02:29:42.934Z,76.37
2023-03-17T02:32:12.422Z,76.24
2023-03-17T02:34:42.659Z,76.17
2023-03-17T02:37:13.498Z,76.06
2023-03-17T02:39:42.981Z,76.29
2023-03-17T02:42:13.103Z,76.05
2023-03-17T02:44:42.287Z,76.11
2023-03-17T02:47:11.857Z,75.91
2023-03-17T02:49:42.501Z,76.20
2023-03-17T02:52:13.694Z,75.99
2023-03-17T02:54:43.164Z,76.06
2023-03-17T02:57:12.388Z,76.08
2023-03-17T02:59:41.945Z,76.05
2023-03-17T03:02:11.928Z,75.98
2023-03-17T03:04:41.101Z,75.84
2023-03-17T03:07:10.432Z,75.85
2023-03-17T03:09:42.473Z,75.72
2023-03-17T03:12:11.868Z,75.91
2023-03-17T03:14:41.263Z,75.72
2023-03-17T03:17:11.073Z,75.59
2023-03-17T03:19:40.432Z,75.23
2023-03-17T03:22:10.004Z,75.34
2023-03-17T03:24:42.185Z,75.24
2023-03-17T03:27:11.365Z,75.00
2023-03-17T03:29:40.615Z,74.89
2023-03-17T03:32:10.050Z,74.77
2023-03-17T03:34:39.224Z,74.44
2023-03-17T03:37:08.589Z,74.62
2023-03-17T03:39:38.191Z,74.63
2023-03-17T03:42:09.363Z,74.47
2023-03-17T03:44:38.592Z,74.30
2023-03-17T03:47:08.074Z,74.36
2023-03-17T03:49:37.173Z,74.14
2023-03-17T03:52:07.090Z,73.90
2023-03-17T03:54:43.768Z,73.93
2023-03-17T03:57:14.502Z,73.97
2023-03-17T03:59:43.677Z,73.84
2023-03-17T04:02:13.092Z,73.80
2023-03-17T04:04:42.586Z,73.68
2023-03-17T04:07:11.952Z,73.96
2023-03-17T04:09:41.217Z,73.87
2023-03-17T04:12:11.702Z,73.66
2023-03-17T04:14:42.820Z,73.57
2023-03-17T04:17:13.245Z,73.43
2023-03-17T04:19:53.099Z,73.45
2023-03-17T04:22:22.598Z,73.25
2023-03-17T04:24:51.846Z,73.25
2023-03-17T04:27:21.031Z,73.28
2023-03-17T04:29:51.687Z,73.53
2023-03-17T04:32:20.810Z,72.92
2023-03-17T04:34:50.053Z,72.98
2023-03-17T04:37:19.189Z,72.95
2023-03-17T04:39:48.263Z,72.89
2023-03-17T04:42:17.387Z,72.69
2023-03-17T04:44:46.638Z,72.58
2023-03-17T04:47:17.258Z,72.74
2023-03-17T04:49:46.567Z,72.69
2023-03-17T04:52:15.693Z,72.33
2023-03-17T04:54:44.782Z,72.37
2023-03-17T04:57:14.136Z,72.30
2023-03-17T04:59:43.270Z,71.97
2023-03-17T05:02:12.785Z,71.90
2023-03-17T05:04:45.620Z,71.63
2023-03-17T05:07:18.126Z,71.97
2023-03-17T05:09:47.832Z,71.84
2023-03-17T05:12:17.496Z,71.58
2023-03-17T05:14:47.051Z,71.11
2023-03-17T05:17:16.187Z,71.42
2023-03-17T05:19:47.384Z,71.14
2023-03-17T05:22:16.754Z,71.17
2023-03-17T05:24:46.117Z,70.82
2023-03-17T05:27:15.348Z,71.00
2023-03-17T05:29:44.487Z,70.58
2023-03-17T05:32:14.378Z,70.64
2023-03-17T05:34:43.638Z,70.40
2023-03-17T05:37:14.631Z,70.04
2023-03-17T05:39:44.124Z,69.69
2023-03-17T05:42:13.306Z,69.47
2023-03-17T05:44:42.586Z,69.06
2023-03-17T05:47:13.152Z,69.68
2023-03-17T05:49:42.383Z,68.88
2023-03-17T05:52:13.058Z,69.58
2023-03-17T05:54:42.461Z,69.20
2023-03-17T05:57:11.617Z,69.24
2023-03-17T05:59:40.800Z,69.18
2023-03-17T06:02:10.189Z,69.04
2023-03-17T06:04:39.473Z,68.58
2023-03-17T06:07:09.951Z,68.83
2023-03-17T06:09:40.577Z,68.21
2023-03-17T06:12:10.540Z,67.50
2023-03-17T06:14:39.655Z,68.29
2023-03-17T06:17:09.072Z,68.16
2023-03-17T06:19:38.209Z,68.01
2023-03-17T06:22:07.583Z,67.29
2023-03-17T06:24:36.982Z,67.54
2023-03-17T06:27:07.806Z,67.03
2023-03-17T06:29:36.954Z,67.63
2023-03-17T06:32:19.318Z,66.77
2023-03-17T06:34:49.937Z,67.27
2023-03-17T06:37:19.766Z,67.20
2023-03-17T06:39:50.232Z,66.82
2023-03-17T06:42:21.021Z,67.09
2023-03-17T06:44:53.240Z,66.42
2023-03-17T06:47:24.700Z,66.52
2023-03-17T06:49:55.154Z,66.68
2023-03-17T06:52:24.261Z,66.14
2023-03-17T06:54:59.574Z,65.88
2023-03-17T06:57:30.528Z,66.61
2023-03-17T06:59:59.716Z,66.63
2023-03-17T07:02:28.949Z,66.44
2023-03-17T07:04:59.608Z,66.43
2023-03-17T07:07:32.044Z,66.23
2023-03-17T07:10:04.279Z,65.92
2023-03-17T07:12:35.274Z,65.69
2023-03-17T07:15:04.480Z,65.55
2023-03-17T07:17:34.093Z,64.89
2023-03-17T07:20:03.204Z,66.06
2023-03-17T07:22:35.806Z,66.00
2023-03-17T07:25:05.328Z,65.67
2023-03-17T07:27:36.257Z,65.25
2023-03-17T07:30:07.004Z,65.06
2023-03-17T07:32:36.762Z,64.84
2023-03-17T07:35:06.619Z,64.49
2023-03-17T07:37:35.827Z,64.42
2023-03-17T07:40:05.383Z,64.57
2023-03-17T07:42:36.329Z,64.77
2023-03-17T07:45:06.582Z,63.80
2023-03-17T07:47:35.791Z,65.26
2023-03-17T07:50:07.236Z,64.39
2023-03-17T07:52:36.668Z,64.14
2023-03-17T07:55:11.790Z,64.09
2023-03-17T07:57:42.996Z,64.93
2023-03-17T08:00:14.124Z,64.38
2023-03-17T08:06:04.821Z,64.81
2023-03-17T08:08:34.607Z,63.90
2023-03-17T08:11:07.093Z,64.10
2023-03-17T08:13:38.116Z,63.20
2023-03-17T08:16:08.663Z,63.86
2023-03-17T08:18:38.704Z,63.64
2023-03-17T08:21:15.841Z,63.08
2023-03-17T08:23:46.223Z,63.87
2023-03-17T08:26:16.440Z,63.76
2023-03-17T08:28:47.486Z,64.21
2023-03-17T08:31:18.594Z,63.82
2023-03-17T08:33:49.616Z,63.67
2023-03-17T08:36:19.658Z,63.60
2023-03-17T08:38:50.453Z,63.95
2023-03-17T08:41:21.969Z,62.34
2023-03-17T08:43:53.546Z,63.30
2023-03-17T08:46:25.216Z,62.16
2023-03-17T08:48:58.172Z,61.09
2023-03-17T08:51:31.059Z,61.79
2023-03-17T08:54:30.188Z,62.71
2023-03-17T08:57:02.531Z,62.38
2023-03-17T08:59:37.468Z,62.34
2023-03-17T09:02:10.397Z,61.90
2023-03-17T09:04:41.680Z,61.27
2023-03-17T09:07:12.204Z,60.87
2023-03-17T09:09:41.865Z,60.58
2023-03-17T09:12:13.932Z,61.10
2023-03-17T09:14:47.416Z,61.18
2023-03-17T09:17:19.884Z,61.33
2023-03-17T09:19:50.383Z,60.69
2023-03-17T09:22:22.059Z,61.41
2023-03-17T09:24:51.744Z,61.92
2023-03-17T09:27:21.049Z,61.93
2023-03-17T09:29:51.675Z,61.90
2023-03-17T09:32:20.973Z,62.12
2023-03-17T09:34:53.106Z,61.10
2023-03-17T09:37:23.913Z,59.74
2023-03-17T09:39:53.309Z,58.67
2023-03-17T09:42:44.234Z,56.96
2023-03-17T09:45:29.621Z,57.21
2023-03-17T09:48:33.848Z,57.03
2023-03-17T09:51:07.177Z,57.22
2023-03-17T09:53:38.468Z,54.07
2023-03-17T09:56:14.155Z,56.74
2023-03-17T09:58:51.153Z,55.94
2023-03-17T10:01:24.858Z,53.18
2023-03-17T10:03:54.988Z,54.76
2023-03-17T10:06:35.233Z,54.16
2023-03-17T10:09:14.936Z,53.81
2023-03-17T10:11:49.088Z,53.66
2023-03-17T10:14:35.474Z,54.74
2023-03-17T10:17:15.938Z,54.89
2023-03-17T10:19:49.288Z,54.01
2023-03-17T10:22:25.684Z,55.05
2023-03-17T10:25:01.700Z,54.80
2023-03-17T10:27:36.669Z,54.60
2023-03-17T10:30:06.606Z,53.71
2023-03-17T10:32:41.495Z,53.51
2023-03-17T10:35:13.205Z,52.41
2023-03-17T10:37:43.918Z,52.52
2023-03-17T10:40:23.919Z,53.66
2023-03-17T10:42:57.527Z,55.58
2023-03-17T10:45:30.518Z,55.19
2023-03-17T10:48:03.103Z,54.87
2023-03-17T10:50:35.968Z,53.69
2023-03-17T10:53:09.983Z,52.71
2023-03-17T10:55:45.163Z,52.96
2023-03-17T10:58:19.061Z,53.39
2023-03-17T11:00:58.504Z,53.34
2023-03-17T11:03:34.252Z,53.36
2023-03-17T11:06:05.680Z,53.02
2023-03-17T11:08:37.087Z,54.45
2023-03-17T11:11:09.259Z,54.28
2023-03-17T11:13:38.951Z,54.75
2023-03-17T11:16:19.575Z,55.48
2023-03-17T11:18:54.086Z,55.55
2023-03-17T11:21:27.790Z,56.20
2023-03-17T11:24:06.320Z,56.42
2023-03-17T11:27:01.018Z,55.63
2023-03-17T11:29:46.915Z,56.08
2023-03-17T11:32:29.819Z,56.04
2023-03-17T11:35:18.475Z,56.33
2023-03-17T11:38:09.547Z,56.58
2023-03-17T11:40:49.446Z,56.52
2023-03-17T11:43:29.841Z,56.43
2023-03-17T11:46:06.447Z,57.55
2023-03-17T11:48:47.852Z,57.45
2023-03-17T11:51:30.894Z,58.10
2023-03-17T11:54:10.013Z,57.65
2023-03-17T11:56:47.257Z,58.01
2023-03-17T11:59:26.641Z,57.94
2023-03-17T12:02:03.203Z,58.13
2023-03-17T12:04:36.766Z,58.30
2023-03-17T12:07:21.167Z,58.77
2023-03-17T12:10:00.460Z,59.39
2023-03-17T12:12:35.907Z,59.38
2023-03-17T12:15:07.712Z,59.82
2023-03-17T12:17:41.101Z,60.01
2023-03-17T12:20:18.752Z,60.06
2023-03-17T12:22:57.126Z,60.34
2023-03-17T12:25:33.108Z,60.67
2023-03-17T12:28:03.632Z,61.11
2023-03-17T12:30:41.529Z,61.01
2023-03-17T12:33:21.774Z,61.64
2023-03-17T12:35:51.048Z,61.13
2023-03-17T12:38:27.601Z,61.23
2023-03-17T12:41:16.384Z,61.46
2023-03-17T12:43:58.182Z,61.71
2023-03-17T12:46:45.480Z,62.06
2023-03-17T12:49:50.421Z,62.14
2023-03-17T12:52:39.125Z,62.18
2023-03-17T12:55:15.511Z,62.45
2023-03-17T12:57:47.348Z,62.61
2023-03-17T13:00:27.508Z,62.48
2023-03-17T13:03:15.174Z,62.71
2023-03-17T13:05:49.313Z,62.40
2023-03-17T13:08:25.997Z,62.72
2023-03-17T13:11:18.331Z,62.60
2023-03-17T13:13:59.758Z,62.85
2023-03-17T13:16:32.549Z,62.73
2023-03-17T13:19:21.337Z,62.51
2023-03-17T13:22:15.578Z,62.57
2023-03-17T13:24:49.674Z,62.82
2023-03-17T13:27:46.595Z,62.91
2023-03-17T13:30:46.371Z,62.77
2023-03-17T13:33:25.128Z,63.07
2023-03-17T13:36:11.447Z,63.14
2023-03-17T13:39:17.800Z,63.14
2023-03-17T13:42:17.787Z,63.40
2023-03-17T13:45:17.917Z,63.17
2023-03-17T13:47:47.777Z,63.64
2023-03-17T13:50:23.176Z,63.69
2023-03-17T13:52:57.331Z,63.41
2023-03-17T13:55:41.702Z,63.95
2023-03-17T13:58:35.940Z,63.86
2023-03-17T14:01:12.431Z,63.74
2023-03-17T14:03:49.262Z,63.83
2023-03-17T14:06:21.523Z,63.42
2023-03-17T14:08:54.514Z,63.60
2023-03-17T14:11:30.985Z,63.74
2023-03-17T14:14:31.230Z,63.59
2023-03-17T14:17:11.191Z,63.68
2023-03-17T14:19:43.598Z,63.71
2023-03-17T14:22:24.803Z,63.81
2023-03-17T14:24:55.420Z,63.95
2023-03-17T14:27:26.359Z,63.40
2023-03-17T14:29:55.572Z,63.57
2023-03-17T14:32:27.178Z,63.74
2023-03-17T14:34:58.959Z,63.99
2023-03-17T14:37:29.944Z,63.70
2023-03-17T14:40:00.704Z,63.85
2023-03-17T14:42:31.624Z,63.69
2023-03-17T14:45:05.639Z,63.91
2023-03-17T14:47:40.902Z,64.04
2023-03-17T14:50:18.404Z,64.09
2023-03-17T14:52:47.706Z,63.68
2023-03-17T14:55:20.107Z,63.81
2023-03-17T14:57:54.626Z,64.09
2023-03-17T15:00:36.828Z,63.72
2023-03-17T15:03:20.347Z,63.78
2023-03-17T15:05:50.501Z,63.67
2023-03-17T15:08:43.193Z,63.78
2023-03-17T15:11:20.240Z,63.79
2023-03-17T15:13:50.521Z,63.87
2023-03-17T15:16:24.057Z,63.79
2023-03-17T15:19:06.839Z,63.75
2023-03-17T15:21:39.985Z,63.87
2023-03-17T15:24:25.298Z,63.93
2023-03-17T15:27:02.093Z,64.02
2023-03-17T15:29:31.404Z,63.87
2023-03-17T15:32:12.910Z,63.97
2023-03-17T15:34:43.710Z,64.17
2023-03-17T15:37:23.571Z,63.85
2023-03-17T15:39:53.379Z,64.09
2023-03-17T15:42:24.940Z,63.95
2023-03-17T15:44:54.661Z,63.98
2023-03-17T15:47:25.546Z,64.22
2023-03-17T15:50:00.310Z,64.77
2023-03-17T15:52:30.746Z,64.19
2023-03-17T15:55:03.572Z,64.59
2023-03-17T15:57:33.729Z,64.47
2023-03-17T16:00:03.065Z,65.37
2023-03-17T16:02:34.790Z,65.14
2023-03-17T16:05:17.555Z,65.08
2023-03-17T16:07:46.801Z,65.04
2023-03-17T16:10:21.482Z,64.72
2023-03-17T16:12:51.628Z,64.74
2023-03-17T16:15:23.748Z,64.88
2023-03-17T16:17:55.709Z,64.89
2023-03-17T16:20:28.976Z,65.02
2023-03-17T16:22:59.614Z,64.77
2023-03-17T16:25:30.794Z,65.27
2023-03-17T16:28:01.336Z,65.05
2023-03-17T16:30:32.538Z,64.96
2023-03-17T16:33:04.624Z,65.22
2023-03-17T16:35:36.321Z,65.29
2023-03-17T16:38:05.633Z,65.33
2023-03-17T16:40:37.613Z,65.49
2023-03-17T16:43:19.117Z,65.24
2023-03-17T16:45:55.364Z,65.61
2023-03-17T16:48:24.927Z,65.73
2023-03-17T16:50:56.107Z,65.49
2023-03-17T16:53:29.608Z,65.66
2023-03-17T16:55:58.871Z,65.63
2023-03-17T16:58:30.712Z,66.02
2023-03-17T17:01:02.976Z,65.91
2023-03-17T17:03:32.693Z,65.87
2023-03-17T17:06:03.305Z,65.81
2023-03-17T17:08:32.447Z,65.61
2023-03-17T17:11:01.517Z,66.00
2023-03-17T17:13:30.845Z,65.89
2023-03-17T17:16:00.113Z,65.76
2023-03-17T17:18:29.492Z,66.01
2023-03-17T17:20:58.664Z,66.13
2023-03-17T17:23:30.037Z,66.14
2023-03-17T17:25:59.161Z,66.26
2023-03-17T17:28:28.228Z,66.26
2023-03-17T17:30:58.980Z,66.60
2023-03-17T17:33:28.181Z,66.45
2023-03-17T17:35:57.373Z,66.56
2023-03-17T17:38:29.682Z,66.98
2023-03-17T17:41:03.584Z,66.95
2023-03-17T17:43:33.021Z,66.93
2023-03-17T17:46:02.328Z,66.79
2023-03-17T17:48:31.463Z,66.59
2023-03-17T17:51:00.658Z,66.86
2023-03-17T17:53:31.322Z,66.81
2023-03-17T17:56:00.431Z,66.97
2023-03-17T17:58:29.634Z,67.09
2023-03-17T18:00:59.316Z,67.21
2023-03-17T18:03:31.554Z,67.17
2023-03-17T18:06:01.688Z,66.66
2023-03-17T18:08:32.300Z,67.25
2023-03-17T18:11:01.491Z,66.71
2023-03-17T18:13:30.688Z,66.99
2023-03-17T18:16:00.347Z,66.80
2023-03-17T18:18:29.589Z,67.15
2023-03-17T18:20:59.474Z,67.18
2023-03-17T18:23:28.818Z,66.92
2023-03-17T18:26:03.178Z,67.03
2023-03-17T18:28:32.545Z,67.13
2023-03-17T18:31:07.060Z,67.06
2023-03-17T18:33:36.387Z,67.13
2023-03-17T18:36:07.497Z,67.39
2023-03-17T18:38:37.040Z,67.20
2023-03-17T18:41:11.558Z,67.08
2023-03-17T18:43:41.436Z,67.10
2023-03-17T18:46:10.622Z,67.27
2023-03-17T18:48:40.014Z,67.33
2023-03-17T18:51:09.123Z,67.29
2023-03-17T18:53:39.569Z,67.34
2023-03-17T18:56:11.283Z,67.29
2023-03-17T18:58:40.397Z,67.26
2023-03-17T19:01:09.608Z,67.65
2023-03-17T19:03:38.847Z,67.74
2023-03-17T19:06:13.451Z,67.60
2023-03-17T19:08:43.275Z,67.81
2023-03-17T19:11:15.693Z,67.89
2023-03-17T19:13:45.869Z,67.91
2023-03-17T19:16:15.851Z,68.01
2023-03-17T19:18:44.966Z,68.25
2023-03-17T19:21:14.794Z,68.22
2023-03-17T19:23:44.102Z,68.29
2023-03-17T19:26:14.797Z,68.23
2023-03-17T19:28:44.072Z,68.48
2023-03-17T19:31:13.603Z,68.31
2023-03-17T19:33:42.876Z,68.63
2023-03-17T19:36:14.518Z,68.39
2023-03-17T19:38:43.722Z,68.56
2023-03-17T19:41:15.799Z,68.66
2023-03-17T19:43:45.235Z,68.79
2023-03-17T19:46:14.598Z,68.74
2023-03-17T19:48:43.878Z,68.79
2023-03-17T19:51:13.221Z,69.02
2023-03-17T19:53:42.418Z,69.09
2023-03-17T19:56:11.553Z,69.04
2023-03-17T19:58:43.385Z,69.01
2023-03-17T20:01:13.369Z,69.18
2023-03-17T20:03:43.100Z,68.91
2023-03-17T20:06:12.304Z,69.01
2023-03-17T20:08:41.869Z,68.98
2023-03-17T20:11:11.929Z,69.21
2023-03-17T20:13:42.826Z,69.14
2023-03-17T20:16:14.917Z,69.05
2023-03-17T20:18:44.096Z,69.34
2023-03-17T20:21:14.873Z,69.44
2023-03-17T20:23:45.236Z,69.44
2023-03-17T20:26:14.640Z,69.62
2023-03-17T20:28:45.394Z,69.33
2023-03-17T20:31:14.811Z,69.68
2023-03-17T20:33:43.974Z,69.54
2023-03-17T20:36:14.398Z,69.56
2023-03-17T20:38:44.269Z,70.03
2023-03-17T20:41:15.451Z,69.86
2023-03-17T20:43:46.468Z,69.75
2023-03-17T20:46:19.444Z,69.70
2023-03-17T20:48:49.357Z,69.71
2023-03-17T20:51:19.163Z,69.85
2023-03-17T20:54:31.522Z,70.13
2023-03-17T20:57:01.820Z,69.46
2023-03-17T20:59:34.090Z,70.08
2023-03-17T21:02:05.298Z,70.09
2023-03-17T21:04:34.520Z,70.19
2023-03-17T21:07:03.757Z,70.12
2023-03-17T21:09:33.023Z,70.22
2023-03-17T21:12:02.188Z,70.13
2023-03-17T21:14:33.043Z,70.33
2023-03-17T21:17:03.035Z,70.33
2023-03-17T21:26:30.344Z,70.31
2023-03-17T21:28:59.524Z,70.14
2023-03-17T21:31:30.304Z,70.26
2023-03-17T21:33:59.579Z,70.26
2023-03-17T21:36:29.176Z,70.40
2023-03-17T21:38:58.421Z,70.62
2023-03-17T21:41:33.729Z,70.72
2023-03-17T21:44:03.830Z,70.78
2023-03-17T21:46:34.732Z,70.67
2023-03-17T21:49:04.141Z,70.46
2023-03-17T21:51:33.896Z,70.36
2023-03-17T21:54:04.403Z,70.60
2023-03-17T21:56:33.897Z,70.42
2023-03-17T21:59:03.511Z,70.47
2023-03-17T22:01:35.095Z,70.53
2023-03-17T22:04:04.256Z,70.71
2023-03-17T22:06:33.583Z,70.43
2023-03-17T22:09:03.270Z,70.76
2023-03-17T22:11:32.916Z,71.02
2023-03-17T22:14:02.286Z,70.84
2023-03-17T22:16:34.708Z,71.30
2023-03-17T22:19:04.264Z,71.10
2023-03-17T22:21:34.283Z,70.74
2023-03-17T22:24:03.558Z,71.16
2023-03-17T22:26:32.964Z,70.91
2023-03-17T22:29:02.347Z,70.87
2023-03-17T22:31:32.082Z,70.86
2023-03-17T22:34:03.111Z,71.01
2023-03-17T22:36:32.793Z,71.12
2023-03-17T22:39:02.311Z,71.29
2023-03-17T22:41:32.410Z,71.28
2023-03-17T22:44:01.611Z,71.11
2023-03-17T22:46:30.854Z,71.43
2023-03-17T22:49:00.201Z,71.17
2023-03-17T22:51:32.223Z,70.98
2023-03-17T22:54:01.500Z,71.03
2023-03-17T22:56:31.255Z,71.06
2023-03-17T22:59:17.350Z,71.04
2023-03-17T23:01:52.106Z,71.42
2023-03-17T23:04:21.357Z,71.51
2023-03-17T23:06:52.872Z,71.09
2023-03-17T23:09:22.531Z,71.20
2023-03-17T23:11:51.785Z,71.25
2023-03-17T23:14:21.112Z,71.76
2023-03-17T23:16:50.425Z,71.57
2023-03-17T23:19:19.614Z,71.69
2023-03-17T23:21:48.870Z,71.17
2023-03-17T23:24:19.615Z,71.68
2023-03-17T23:26:49.023Z,71.72
2023-03-17T23:29:18.176Z,71.37
2023-03-17T23:31:47.467Z,71.50
2023-03-17T23:34:16.660Z,71.83
2023-03-17T23:36:45.966Z,71.41
2023-03-17T23:39:15.435Z,71.33
2023-03-17T23:41:46.225Z,71.41
2023-03-17T23:44:15.492Z,71.62
2023-03-17T23:46:45.617Z,71.56
2023-03-17T23:49:14.908Z,71.33
2023-03-17T23:51:44.387Z,71.53
2023-03-17T23:54:14.770Z,71.55
2023-03-17T23:56:45.574Z,71.91
2023-03-17T23:59:14.833Z,71.75
